Time;durP1;ratioP1;P1;durP2;ratioP2;P2;SDS_P1;SDS_P2;PMS_P1;PMS_P2;Temp;Humidity;BMP_temperature;BMP_pressure;BME280_temperature;BME280_humidity;BME280_pressure;Samples;Min_cycle;Max_cycle;Signal;HPM_P1;HPM_P2
2022/10/26 00:02:09;;;;;;;;;;;;;;;;;;5115146;28;19994;-41
2022/10/26 00:04:35;;;;;;;;;;;;;;;;;;5124550;27;19919;-44
2022/10/26 00:07:01;;;;;;;;;;;;;;;;;;5136437;27;20283;-40
2022/10/26 00:09:26;;;;;;;;;;;;;;;;;;5136027;27;20010;-40
2022/10/26 00:11:52;;;;;;;;;;;;;;;;;;5135564;27;19964;-40
2022/10/26 00:14:18;;;;;;;;;;;;;;;;;;5135991;27;19919;-40
2022/10/26 00:16:44;;;;;;;;;;;;;;;;;;5125735;27;20379;-40
2022/10/26 00:19:10;;;;;;;;;;;;;;;;;;5131947;27;19939;-40
2022/10/26 00:21:36;;;;;;;;;;;;;;;;;;5130375;27;19919;-43
2022/10/26 00:24:02;;;;;;;;;;;;;;;;;;5135749;27;20280;-40
2022/10/26 00:26:28;;;;;;;;;;;;;;;;;;5136072;27;20002;-40
2022/10/26 00:28:53;;;;;;;;;;;;;;;;;;5134804;27;19903;-40
2022/10/26 00:31:19;;;;;;;;;;;;;;;;;;5117683;27;19908;-40
2022/10/26 00:33:45;;;;;;;;;;;;;;;;;;5132989;27;19947;-40
2022/10/26 00:36:13;;;;;;;;;;;;;;;;;;5130263;27;20345;-40
2022/10/26 00:38:44;;;;;;;;;;;;;;;;;;5122913;27;19999;-40
2022/10/26 00:41:10;;;;;;;;;;;;;;;;;;5136054;27;19964;-40
2022/10/26 00:43:36;;;;;;;;;;;;;;;;;;5134949;27;20334;-45
2022/10/26 00:46:02;;;;;;;;;;;;;;;;;;5135568;27;20002;-41
2022/10/26 00:48:28;;;;;;;;;;;;;;;;;;5132507;27;20278;-41
2022/10/26 00:50:54;;;;;;;;;;;;;;;;;;5114098;28;19903;-40
2022/10/26 00:53:19;;;;;;;;;;;;;;;;;;5115190;27;19916;-40
2022/10/26 00:55:45;;;;;;;;;;;;;;;;;;5120199;27;19918;-41
2022/10/26 00:58:11;;;;;;;;;;;;;;;;;;5135456;27;20347;-40
2022/10/26 01:00:37;;;;;;;;;;;;;;;;;;5134124;27;19911;-40
2022/10/26 01:03:03;;;;;;;;;;;;;;;;;;5135468;27;19911;-40
2022/10/26 01:05:29;;;;;;;;;;;;;;;;;;5135035;27;19994;-40
2022/10/26 01:07:55;;;;;;;;;;;;;;;;;;5120104;27;19931;-40
2022/10/26 01:10:21;;;;;;;;;;;;;;;;;;5134503;27;19914;-42
2022/10/26 01:12:46;;;;;;;;;;;;;;;;;;5110856;27;20002;-40
2022/10/26 01:15:12;;;;;;;;;;;;;;;;;;5134909;27;19908;-40
2022/10/26 01:17:38;;;;;;;;;;;;;;;;;;5134377;27;19930;-41
2022/10/26 01:20:04;;;;;;;;;;;;;;;;;;5134448;27;19934;-41
2022/10/26 01:22:30;;;;;;;;;;;;;;;;;;5118322;27;19912;-40
2022/10/26 01:24:56;;;;;;;;;;;;;;;;;;5113071;28;20747;-41
2022/10/26 01:27:22;;;;;;;;;;;;;;;;;;5114478;28;19943;-41
2022/10/26 01:29:48;;;;;;;;;;;;;;;;;;5116776;27;20359;-40
2022/10/26 01:32:13;;;;;;;;;;;;;;;;;;5134843;27;20416;-41
2022/10/26 01:34:39;;;;;;;;;;;;;;;;;;5132504;27;19914;-40
2022/10/26 01:37:05;;;;;;;;;;;;;;;;;;5134710;27;20018;-41
2022/10/26 01:39:31;;;;;;;;;;;;;;;;;;5134357;27;19911;-41
2022/10/26 01:41:57;;;;;;;;;;;;;;;;;;5133992;27;20307;-41
2022/10/26 01:44:23;;;;;;;;;;;;;;;;;;5134105;27;19952;-41
2022/10/26 01:46:49;;;;;;;;;;;;;;;;;;5129309;27;19912;-40
2022/10/26 01:49:15;;;;;;;;;;;;;;;;;;5133881;27;19907;-40
2022/10/26 01:51:41;;;;;;;;;;;;;;;;;;5133833;27;19908;-41
2022/10/26 01:54:07;;;;;;;;;;;;;;;;;;5133890;27;19912;-41
2022/10/26 01:56:33;;;;;;;;;;;;;;;;;;5134337;27;20360;-45
2022/10/26 01:58:58;;;;;;;;;;;;;;;;;;5133172;27;19998;-43
2022/10/26 02:01:24;;;;;;;;;;;;;;;;;;5134309;27;19925;-40
2022/10/26 02:03:50;;;;;;;;;;;;;;;;;;5130656;27;19923;-42
2022/10/26 02:06:16;;;;;;;;;;;;;;;;;;5132614;27;19922;-40
2022/10/26 02:08:42;;;;;;;;;;;;;;;;;;5114893;27;19919;-40
2022/10/26 02:11:08;;;;;;;;;;;;;;;;;;5120832;27;19934;-41
2022/10/26 02:13:34;;;;;;;;;;;;;;;;;;5119576;27;20280;-44
2022/10/26 02:16:00;;;;;;;;;;;;;;;;;;5118639;27;20009;-43
2022/10/26 02:18:25;;;;;;;;;;;;;;;;;;5117835;27;20409;-41
2022/10/26 02:20:51;;;;;;;;;;;;;;;;;;5113707;27;19922;-41
2022/10/26 02:23:17;;;;;;;;;;;;;;;;;;5119642;27;20015;-42
2022/10/26 02:25:43;;;;;;;;;;;;;;;;;;5119970;27;20250;-41
2022/10/26 02:28:09;;;;;;;;;;;;;;;;;;5103914;27;19912;-42
2022/10/26 02:30:35;;;;;;;;;;;;;;;;;;5116364;27;19941;-46
2022/10/26 02:33:01;;;;;;;;;;;;;;;;;;5118321;27;19907;-42
2022/10/26 02:35:27;;;;;;;;;;;;;;;;;;5119723;27;19912;-41
2022/10/26 02:37:52;;;;;;;;;;;;;;;;;;5098413;28;20551;-43
2022/10/26 02:40:18;;;;;;;;;;;;;;;;;;5108002;27;19912;-41
2022/10/26 02:42:44;;;;;;;;;;;;;;;;;;5120397;27;20029;-41
2022/10/26 02:45:10;;;;;;;;;;;;;;;;;;5120231;27;19915;-41
2022/10/26 02:47:36;;;;;;;;;;;;;;;;;;5121716;27;20379;-46
2022/10/26 02:50:02;;;;;;;;;;;;;;;;;;5117057;27;19950;-40
2022/10/26 02:52:28;;;;;;;;;;;;;;;;;;5099605;27;19908;-40
2022/10/26 02:54:54;;;;;;;;;;;;;;;;;;5115383;27;20512;-42
2022/10/26 02:57:20;;;;;;;;;;;;;;;;;;5114488;27;19912;-41
2022/10/26 02:59:48;;;;;;;;;;;;;;;;;;5100448;27;19923;-42
2022/10/26 03:02:14;;;;;;;;;;;;;;;;;;5092598;28;19920;-40
2022/10/26 03:04:40;;;;;;;;;;;;;;;;;;5093334;28;20090;-41
2022/10/26 03:07:06;;;;;;;;;;;;;;;;;;5112272;28;19920;-41
2022/10/26 03:09:32;;;;;;;;;;;;;;;;;;5112092;28;19995;-43
2022/10/26 03:11:58;;;;;;;;;;;;;;;;;;5112490;28;20310;-41
2022/10/26 03:14:24;;;;;;;;;;;;;;;;;;5106561;28;19934;-40
2022/10/26 03:16:49;;;;;;;;;;;;;;;;;;5102676;28;20254;-41
2022/10/26 03:19:15;;;;;;;;;;;;;;;;;;5091492;28;20388;-40
2022/10/26 03:21:41;;;;;;;;;;;;;;;;;;5108481;28;19918;-40
2022/10/26 03:24:07;;;;;;;;;;;;;;;;;;5112161;28;19930;-41
2022/10/26 03:26:33;;;;;;;;;;;;;;;;;;5112067;28;19908;-43
2022/10/26 03:28:59;;;;;;;;;;;;;;;;;;5111726;28;20387;-41
2022/10/26 03:31:25;;;;;;;;;;;;;;;;;;5106712;28;19916;-41
2022/10/26 03:33:51;;;;;;;;;;;;;;;;;;5096947;28;20328;-40
2022/10/26 03:36:17;;;;;;;;;;;;;;;;;;5104234;28;19991;-40
2022/10/26 03:38:43;;;;;;;;;;;;;;;;;;5115490;28;19916;-40
2022/10/26 03:41:08;;;;;;;;;;;;;;;;;;5116552;28;19911;-41
2022/10/26 03:43:34;;;;;;;;;;;;;;;;;;5115783;28;19911;-45
2022/10/26 03:46:00;;;;;;;;;;;;;;;;;;5115946;28;19908;-40
2022/10/26 03:48:26;;;;;;;;;;;;;;;;;;5116341;28;20440;-40
2022/10/26 03:50:52;;;;;;;;;;;;;;;;;;5108837;28;19912;-40
2022/10/26 03:53:18;;;;;;;;;;;;;;;;;;5116156;28;19915;-40
2022/10/26 03:55:44;;;;;;;;;;;;;;;;;;5115064;28;20253;-41
2022/10/26 03:58:09;;;;;;;;;;;;;;;;;;5116282;28;19912;-41
2022/10/26 04:00:35;;;;;;;;;;;;;;;;;;5115229;28;19916;-44
2022/10/26 04:03:01;;;;;;;;;;;;;;;;;;5115877;28;19919;-41
2022/10/26 04:05:27;;;;;;;;;;;;;;;;;;5113380;28;20352;-40
2022/10/26 04:07:53;;;;;;;;;;;;;;;;;;5119290;27;19920;-40
2022/10/26 04:10:21;;;;;;;;;;;;;;;;;;5122310;27;20384;-41
2022/10/26 04:12:46;;;;;;;;;;;;;;;;;;5115097;28;20324;-41
2022/10/26 04:15:12;;;;;;;;;;;;;;;;;;5115924;28;19907;-41
2022/10/26 04:17:38;;;;;;;;;;;;;;;;;;5116721;27;19952;-40
2022/10/26 04:20:04;;;;;;;;;;;;;;;;;;5139304;27;19999;-40
2022/10/26 04:22:30;;;;;;;;;;;;;;;;;;5125062;27;19912;-40
2022/10/26 04:24:56;;;;;;;;;;;;;;;;;;5128949;27;20678;-41
2022/10/26 04:27:22;;;;;;;;;;;;;;;;;;5136242;27;19946;-40
2022/10/26 04:29:47;;;;;;;;;;;;;;;;;;5134993;27;19908;-40
2022/10/26 04:32:13;;;;;;;;;;;;;;;;;;5135847;27;19961;-41
2022/10/26 04:34:39;;;;;;;;;;;;;;;;;;5136371;27;19907;-44
2022/10/26 04:37:05;;;;;;;;;;;;;;;;;;5135514;27;20313;-40
2022/10/26 04:39:31;;;;;;;;;;;;;;;;;;5130495;27;19920;-41
2022/10/26 04:41:57;;;;;;;;;;;;;;;;;;5133953;27;19961;-40
2022/10/26 04:44:23;;;;;;;;;;;;;;;;;;5135370;27;19952;-40
2022/10/26 04:46:48;;;;;;;;;;;;;;;;;;5134288;27;19915;-41
2022/10/26 04:49:14;;;;;;;;;;;;;;;;;;5130000;27;20265;-40
2022/10/26 04:51:40;;;;;;;;;;;;;;;;;;5114265;28;19998;-41
2022/10/26 04:54:06;;;;;;;;;;;;;;;;;;5114445;28;20395;-43
2022/10/26 04:56:33;;;;;;;;;;;;;;;;;;5096901;27;19918;-44
2022/10/26 04:58:58;;;;;;;;;;;;;;;;;;5133691;27;19937;-41
2022/10/26 05:01:24;;;;;;;;;;;;;;;;;;5127933;27;19920;-40
2022/10/26 05:03:51;;;;;;;;;;;;;;;;;;5134309;27;20351;-44
2022/10/26 05:06:17;;;;;;;;;;;;;;;;;;5135411;27;19907;-42
2022/10/26 05:08:42;;;;;;;;;;;;;;;;;;5133406;27;20003;-40
2022/10/26 05:11:08;;;;;;;;;;;;;;;;;;5135420;27;19911;-41
2022/10/26 05:13:34;;;;;;;;;;;;;;;;;;5128901;27;19911;-46
2022/10/26 05:16:00;;;;;;;;;;;;;;;;;;5134930;27;19946;-40
2022/10/26 05:18:26;;;;;;;;;;;;;;;;;;5135232;27;20495;-40
2022/10/26 05:20:52;;;;;;;;;;;;;;;;;;5133865;27;19912;-40
2022/10/26 05:23:18;;;;;;;;;;;;;;;;;;5114965;27;19912;-40
2022/10/26 05:25:44;;;;;;;;;;;;;;;;;;5113409;28;19908;-41
2022/10/26 05:28:13;;;;;;;;;;;;;;;;;;5114461;28;19915;-40
2022/10/26 05:30:38;;;;;;;;;;;;;;;;;;5113143;27;19912;-41
2022/10/26 05:33:04;;;;;;;;;;;;;;;;;;5125321;27;19915;-40
2022/10/26 05:35:30;;;;;;;;;;;;;;;;;;5134047;27;19915;-43
2022/10/26 05:37:56;;;;;;;;;;;;;;;;;;5133974;27;19911;-42
2022/10/26 05:40:22;;;;;;;;;;;;;;;;;;5134058;27;19926;-40
2022/10/26 05:42:49;;;;;;;;;;;;;;;;;;5133954;27;19911;-41
2022/10/26 05:45:16;;;;;;;;;;;;;;;;;;5134592;27;19907;-40
2022/10/26 05:47:43;;;;;;;;;;;;;;;;;;5126817;27;19912;-40
2022/10/26 05:50:08;;;;;;;;;;;;;;;;;;5134072;27;19907;-39
2022/10/26 05:52:34;;;;;;;;;;;;;;;;;;5133938;27;19986;-43
2022/10/26 05:55:00;;;;;;;;;;;;;;;;;;5133576;27;20272;-41
2022/10/26 05:57:26;;;;;;;;;;;;;;;;;;5134407;27;19915;-41
2022/10/26 05:59:52;;;;;;;;;;;;;;;;;;5132076;27;19958;-41
2022/10/26 06:02:18;;;;;;;;;;;;;;;;;;5130481;27;20048;-41
2022/10/26 06:04:46;;;;;;;;;;;;;;;;;;5131000;27;19907;-41
2022/10/26 06:07:12;;;;;;;;;;;;;;;;;;5133943;27;19923;-40
2022/10/26 06:09:38;;;;;;;;;;;;;;;;;;5128405;27;19915;-40
2022/10/26 06:12:04;;;;;;;;;;;;;;;;;;5113633;28;20384;-41
2022/10/26 06:14:30;;;;;;;;;;;;;;;;;;5113208;28;19907;-42
2022/10/26 06:16:56;;;;;;;;;;;;;;;;;;5118325;27;20565;-41
2022/10/26 06:19:22;;;;;;;;;;;;;;;;;;5120373;27;19911;-42
2022/10/26 06:21:48;;;;;;;;;;;;;;;;;;5118108;27;19919;-42
2022/10/26 06:24:14;;;;;;;;;;;;;;;;;;5132914;27;19907;-41
2022/10/26 06:26:40;;;;;;;;;;;;;;;;;;5132370;27;20360;-42
2022/10/26 06:29:06;;;;;;;;;;;;;;;;;;5132705;27;19912;-41
2022/10/26 06:31:32;;;;;;;;;;;;;;;;;;5133311;27;19911;-43
2022/10/26 06:33:57;;;;;;;;;;;;;;;;;;5125979;27;19911;-42
2022/10/26 06:36:24;;;;;;;;;;;;;;;;;;5127487;27;19959;-42
2022/10/26 06:38:49;;;;;;;;;;;;;;;;;;5129932;27;19949;-42
2022/10/26 06:41:18;;;;;;;;;;;;;;;;;;5118818;27;19959;-42
2022/10/26 06:43:44;;;;;;;;;;;;;;;;;;5122194;27;19946;-41
2022/10/26 06:46:09;;;;;;;;;;;;;;;;;;5126295;27;19951;-43
2022/10/26 06:48:35;;;;;;;;;;;;;;;;;;5129199;27;19961;-42
2022/10/26 06:51:01;;;;;;;;;;;;;;;;;;5133665;27;20379;-42
2022/10/26 06:53:27;;;;;;;;;;;;;;;;;;5132525;27;19946;-41
2022/10/26 06:55:53;;;;;;;;;;;;;;;;;;5131317;27;20001;-42
2022/10/26 06:58:19;;;;;;;;;;;;;;;;;;5122461;27;19919;-42
2022/10/26 07:00:45;;;;;;;;;;;;;;;;;;5127868;27;19912;-42
2022/10/26 07:03:11;;;;;;;;;;;;;;;;;;5133084;27;20006;-42
2022/10/26 07:05:36;;;;;;;;;;;;;;;;;;5131428;27;19908;-47
2022/10/26 07:08:02;;;;;;;;;;;;;;;;;;5132247;27;20261;-42
2022/10/26 07:10:28;;;;;;;;;;;;;;;;;;5129981;27;19907;-41
2022/10/26 07:12:54;;;;;;;;;;;;;;;;;;5131628;27;19919;-42
2022/10/26 07:15:20;;;;;;;;;;;;;;;;;;5132205;27;20317;-42
2022/10/26 07:17:47;;;;;;;;;;;;;;;;;;5131588;28;20006;-42
2022/10/26 07:20:12;;;;;;;;;;;;;;;;;;5131792;28;19911;-42
2022/10/26 07:22:38;;;;;;;;;;;;;;;;;;5131936;28;19918;-40
2022/10/26 07:25:05;;;;;;;;;;;;;;;;;;5131985;28;19911;-41
2022/10/26 07:27:31;;;;;;;;;;;;;;;;;;5131249;28;19908;-39
2022/10/26 07:29:57;;;;;;;;;;;;;;;;;;5130869;28;19912;-42
2022/10/26 07:32:23;;;;;;;;;;;;;;;;;;5128502;28;19915;-40
2022/10/26 07:34:49;;;;;;;;;;;;;;;;;;5133717;27;19919;-40
2022/10/26 07:37:14;;;;;;;;;;;;;;;;;;5136506;27;19914;-41
2022/10/26 07:39:40;;;;;;;;;;;;;;;;;;5130965;28;20333;-42
2022/10/26 07:42:06;;;;;;;;;;;;;;;;;;5131919;28;19911;-42
2022/10/26 07:44:32;;;;;;;;;;;;;;;;;;5130065;28;19911;-44
2022/10/26 07:46:59;;;;;;;;;;;;;;;;;;5131609;28;20353;-41
2022/10/26 07:49:24;;;;;;;;;;;;;;;;;;5131996;28;19914;-41
2022/10/26 07:51:50;;;;;;;;;;;;;;;;;;5130003;28;20284;-41
2022/10/26 07:54:16;;;;;;;;;;;;;;;;;;5131509;28;19914;-42
2022/10/26 07:56:42;;;;;;;;;;;;;;;;;;5131305;28;19908;-41
2022/10/26 07:59:08;;;;;;;;;;;;;;;;;;5131714;28;19907;-42
2022/10/26 08:01:34;;;;;;;;;;;;;;;;;;5131013;28;20010;-44
2022/10/26 08:04:00;;;;;;;;;;;;;;;;;;5131486;28;19916;-42
2022/10/26 08:06:26;;;;;;;;;;;;;;;;;;5132074;28;19964;-41
2022/10/26 08:08:52;;;;;;;;;;;;;;;;;;5112101;28;19924;-40
2022/10/26 08:11:18;;;;;;;;;;;;;;;;;;5124713;28;19907;-41
2022/10/26 08:13:43;;;;;;;;;;;;;;;;;;5130790;28;19915;-41
2022/10/26 08:16:09;;;;;;;;;;;;;;;;;;5131658;28;19914;-41
2022/10/26 08:18:35;;;;;;;;;;;;;;;;;;5129878;28;19923;-42
2022/10/26 08:21:01;;;;;;;;;;;;;;;;;;5125792;27;19919;-41
2022/10/26 08:23:27;;;;;;;;;;;;;;;;;;5135247;27;19911;-41
2022/10/26 08:25:53;;;;;;;;;;;;;;;;;;5133998;27;19961;-41
2022/10/26 08:28:19;;;;;;;;;;;;;;;;;;5125160;27;19919;-41
2022/10/26 08:30:45;;;;;;;;;;;;;;;;;;5131277;27;19907;-42
2022/10/26 08:33:11;;;;;;;;;;;;;;;;;;5135596;27;19913;-41
2022/10/26 08:35:36;;;;;;;;;;;;;;;;;;5129573;27;20368;-47
2022/10/26 08:38:02;;;;;;;;;;;;;;;;;;5124355;27;19941;-41
2022/10/26 08:40:28;;;;;;;;;;;;;;;;;;5131760;27;19918;-41
2022/10/26 08:42:54;;;;;;;;;;;;;;;;;;5134568;27;20085;-41
2022/10/26 08:45:20;;;;;;;;;;;;;;;;;;5118082;27;19965;-41
2022/10/26 08:47:46;;;;;;;;;;;;;;;;;;5131932;27;19911;-41
2022/10/26 08:50:12;;;;;;;;;;;;;;;;;;5132863;27;19908;-41
2022/10/26 08:52:38;;;;;;;;;;;;;;;;;;5132318;27;19929;-41
2022/10/26 08:55:03;;;;;;;;;;;;;;;;;;5134225;27;20019;-42
2022/10/26 08:57:29;;;;;;;;;;;;;;;;;;5135192;27;19915;-41
2022/10/26 08:59:55;;;;;;;;;;;;;;;;;;5133999;27;20496;-44
2022/10/26 09:02:22;;;;;;;;;;;;;;;;;;5124874;27;19951;-41
2022/10/26 09:04:48;;;;;;;;;;;;;;;;;;5122793;27;19942;-41
2022/10/26 09:07:14;;;;;;;;;;;;;;;;;;5134635;27;19955;-41
2022/10/26 09:09:40;;;;;;;;;;;;;;;;;;5119881;27;19912;-41
2022/10/26 09:12:06;;;;;;;;;;;;;;;;;;5106068;27;19968;-42
2022/10/26 09:14:32;;;;;;;;;;;;;;;;;;5133241;27;19922;-42
2022/10/26 09:16:58;;;;;;;;;;;;;;;;;;5134061;27;19947;-41
2022/10/26 09:19:24;;;;;;;;;;;;;;;;;;5133846;27;19908;-41
2022/10/26 09:21:49;;;;;;;;;;;;;;;;;;5127967;27;19954;-42
2022/10/26 09:24:18;;;;;;;;;;;;;;;;;;5131359;27;19966;-41
2022/10/26 09:26:44;;;;;;;;;;;;;;;;;;5132161;27;19907;-44
2022/10/26 09:29:10;;;;;;;;;;;;;;;;;;5133891;27;19914;-41
2022/10/26 09:31:36;;;;;;;;;;;;;;;;;;5133695;27;19975;-44
2022/10/26 09:34:01;;;;;;;;;;;;;;;;;;5130893;27;20010;-41
2022/10/26 09:36:27;;;;;;;;;;;;;;;;;;5134308;27;19930;-41
2022/10/26 09:38:53;;;;;;;;;;;;;;;;;;5133129;27;19908;-41
2022/10/26 09:41:19;;;;;;;;;;;;;;;;;;5133777;27;20002;-42
2022/10/26 09:43:45;;;;;;;;;;;;;;;;;;5131822;27;19911;-41
2022/10/26 09:46:11;;;;;;;;;;;;;;;;;;5134108;27;19966;-41
2022/10/26 09:48:37;;;;;;;;;;;;;;;;;;5133113;27;19951;-44
2022/10/26 09:51:03;;;;;;;;;;;;;;;;;;5133863;27;19908;-41
2022/10/26 09:53:29;;;;;;;;;;;;;;;;;;5134318;27;19908;-41
2022/10/26 09:55:55;;;;;;;;;;;;;;;;;;5132670;27;19904;-42
2022/10/26 09:58:20;;;;;;;;;;;;;;;;;;5130908;27;20419;-45
2022/10/26 10:00:46;;;;;;;;;;;;;;;;;;5131352;27;20019;-42
2022/10/26 10:03:12;;;;;;;;;;;;;;;;;;5133491;27;20368;-42
2022/10/26 10:05:39;;;;;;;;;;;;;;;;;;5132590;27;19911;-41
2022/10/26 10:08:05;;;;;;;;;;;;;;;;;;5133063;27;20371;-42
2022/10/26 10:10:31;;;;;;;;;;;;;;;;;;5125705;27;19919;-44
2022/10/26 10:12:57;;;;;;;;;;;;;;;;;;5118883;27;19918;-42
2022/10/26 10:15:23;;;;;;;;;;;;;;;;;;5132956;27;19907;-43
2022/10/26 10:17:49;;;;;;;;;;;;;;;;;;5131912;27;19914;-43
2022/10/26 10:20:15;;;;;;;;;;;;;;;;;;5134872;27;19964;-42
2022/10/26 10:22:41;;;;;;;;;;;;;;;;;;5132604;27;19972;-42
2022/10/26 10:25:06;;;;;;;;;;;;;;;;;;5132723;27;19953;-41
2022/10/26 10:27:32;;;;;;;;;;;;;;;;;;5133321;27;20380;-41
2022/10/26 10:29:58;;;;;;;;;;;;;;;;;;5132078;27;19911;-39
2022/10/26 10:32:25;;;;;;;;;;;;;;;;;;5133038;27;20006;-43
2022/10/26 10:34:51;;;;;;;;;;;;;;;;;;5127887;27;20374;-41
2022/10/26 10:37:17;;;;;;;;;;;;;;;;;;5131947;27;19908;-44
2022/10/26 10:39:43;;;;;;;;;;;;;;;;;;5131066;27;19911;-41
2022/10/26 10:42:09;;;;;;;;;;;;;;;;;;5126028;27;19916;-41
2022/10/26 10:44:35;;;;;;;;;;;;;;;;;;5122184;27;19985;-42
2022/10/26 10:47:01;;;;;;;;;;;;;;;;;;5131314;27;19911;-41
2022/10/26 10:49:27;;;;;;;;;;;;;;;;;;5130342;27;19911;-42
2022/10/26 10:51:52;;;;;;;;;;;;;;;;;;5124580;27;19911;-43
2022/10/26 10:54:18;;;;;;;;;;;;;;;;;;5133206;27;19915;-42
2022/10/26 10:56:44;;;;;;;;;;;;;;;;;;5132681;27;19918;-41
2022/10/26 10:59:10;;;;;;;;;;;;;;;;;;5132384;27;20068;-41
2022/10/26 11:01:36;;;;;;;;;;;;;;;;;;5123417;27;20337;-41
2022/10/26 11:04:02;;;;;;;;;;;;;;;;;;5132054;27;19911;-41
2022/10/26 11:06:28;;;;;;;;;;;;;;;;;;5132553;27;19908;-42
2022/10/26 11:08:54;;;;;;;;;;;;;;;;;;5127587;27;19923;-41
2022/10/26 11:11:19;;;;;;;;;;;;;;;;;;5127295;27;20009;-41
2022/10/26 11:13:45;;;;;;;;;;;;;;;;;;5131515;27;19911;-41
2022/10/26 11:16:12;;;;;;;;;;;;;;;;;;5132017;27;19912;-41
2022/10/26 11:18:38;;;;;;;;;;;;;;;;;;5125861;28;19911;-44
2022/10/26 11:21:03;;;;;;;;;;;;;;;;;;5126094;27;20276;-41
2022/10/26 11:23:29;;;;;;;;;;;;;;;;;;5126646;28;19912;-41
2022/10/26 11:25:55;;;;;;;;;;;;;;;;;;5125221;28;20002;-45
2022/10/26 11:28:21;;;;;;;;;;;;;;;;;;5132634;28;19908;-41
2022/10/26 11:30:47;;;;;;;;;;;;;;;;;;5131265;28;20352;-41
2022/10/26 11:33:13;;;;;;;;;;;;;;;;;;5132238;27;19908;-44
2022/10/26 11:35:39;;;;;;;;;;;;;;;;;;5127310;27;19950;-41
2022/10/26 11:38:05;;;;;;;;;;;;;;;;;;5133755;27;19914;-41
2022/10/26 11:40:31;;;;;;;;;;;;;;;;;;5129294;28;19912;-41
2022/10/26 11:42:56;;;;;;;;;;;;;;;;;;5130236;28;19916;-41
2022/10/26 11:45:22;;;;;;;;;;;;;;;;;;5117464;28;19912;-41
2022/10/26 11:47:48;;;;;;;;;;;;;;;;;;5131181;28;19907;-41
2022/10/26 11:50:14;;;;;;;;;;;;;;;;;;5131498;28;19976;-41
2022/10/26 11:52:40;;;;;;;;;;;;;;;;;;5125567;27;19908;-41
2022/10/26 11:55:06;;;;;;;;;;;;;;;;;;5126541;28;20004;-41
2022/10/26 11:57:32;;;;;;;;;;;;;;;;;;5137526;27;19907;-42
2022/10/26 11:59:57;;;;;;;;;;;;;;;;;;5133630;27;20378;-41
2022/10/26 12:02:23;;;;;;;;;;;;;;;;;;5136281;27;19918;-42
2022/10/26 12:04:49;;;;;;;;;;;;;;;;;;5128064;27;19915;-43
2022/10/26 12:07:15;;;;;;;;;;;;;;;;;;5134791;27;20014;-43
2022/10/26 12:09:41;;;;;;;;;;;;;;;;;;5128559;27;19908;-41
2022/10/26 12:12:07;;;;;;;;;;;;;;;;;;5135835;27;20301;-41
2022/10/26 12:14:33;;;;;;;;;;;;;;;;;;5135453;27;19915;-47
2022/10/26 12:16:59;;;;;;;;;;;;;;;;;;5131537;27;19908;-42
2022/10/26 12:19:25;;;;;;;;;;;;;;;;;;5134942;27;19907;-41
2022/10/26 12:21:51;;;;;;;;;;;;;;;;;;5134892;27;20012;-42
2022/10/26 12:24:17;;;;;;;;;;;;;;;;;;5131882;27;20260;-43
2022/10/26 12:26:42;;;;;;;;;;;;;;;;;;5124543;27;19907;-42
2022/10/26 12:29:08;;;;;;;;;;;;;;;;;;5131929;27;20014;-41
2022/10/26 12:31:34;;;;;;;;;;;;;;;;;;5135392;27;19914;-45
2022/10/26 12:34:00;;;;;;;;;;;;;;;;;;5139616;27;20330;-41
2022/10/26 12:36:26;;;;;;;;;;;;;;;;;;5135714;27;19968;-41
2022/10/26 12:38:52;;;;;;;;;;;;;;;;;;5140842;27;20167;-41
2022/10/26 12:41:18;;;;;;;;;;;;;;;;;;5133934;27;19972;-43
2022/10/26 12:43:44;;;;;;;;;;;;;;;;;;5132655;27;20319;-41
2022/10/26 12:46:10;;;;;;;;;;;;;;;;;;5126188;27;19907;-41
2022/10/26 12:48:36;;;;;;;;;;;;;;;;;;5134295;27;19958;-44
2022/10/26 12:51:01;;;;;;;;;;;;;;;;;;5133746;27;19908;-41
2022/10/26 12:53:27;;;;;;;;;;;;;;;;;;5135139;27;20014;-41
2022/10/26 12:55:53;;;;;;;;;;;;;;;;;;5133748;27;19918;-41
2022/10/26 12:58:19;;;;;;;;;;;;;;;;;;5138701;27;19907;-43
2022/10/26 13:00:45;;;;;;;;;;;;;;;;;;5133562;27;20265;-41
2022/10/26 13:03:11;;;;;;;;;;;;;;;;;;5134629;27;19912;-43
2022/10/26 13:05:37;;;;;;;;;;;;;;;;;;5133607;27;19942;-46
2022/10/26 13:08:03;;;;;;;;;;;;;;;;;;5133130;27;19919;-41
2022/10/26 13:10:28;;;;;;;;;;;;;;;;;;5133861;27;19908;-42
2022/10/26 13:12:54;;;;;;;;;;;;;;;;;;5133716;27;20616;-41
2022/10/26 13:15:20;;;;;;;;;;;;;;;;;;5134442;27;19907;-41
2022/10/26 13:17:46;;;;;;;;;;;;;;;;;;5133991;27;19908;-41
2022/10/26 13:20:12;;;;;;;;;;;;;;;;;;5132653;27;20011;-42
2022/10/26 13:22:38;;;;;;;;;;;;;;;;;;5127357;27;19912;-42
2022/10/26 13:25:04;;;;;;;;;;;;;;;;;;5129870;27;19977;-42
2022/10/26 13:27:29;;;;;;;;;;;;;;;;;;5116428;27;19954;-42
2022/10/26 13:29:55;;;;;;;;;;;;;;;;;;5133294;27;19907;-41
2022/10/26 13:32:21;;;;;;;;;;;;;;;;;;5135310;27;19916;-41
2022/10/26 13:34:47;;;;;;;;;;;;;;;;;;5130986;27;19951;-43
2022/10/26 13:37:13;;;;;;;;;;;;;;;;;;5130943;27;19914;-41
2022/10/26 13:39:39;;;;;;;;;;;;;;;;;;5131124;27;19961;-41
2022/10/26 13:42:05;;;;;;;;;;;;;;;;;;5129487;27;20253;-42
2022/10/26 13:44:30;;;;;;;;;;;;;;;;;;5133243;27;19939;-41
2022/10/26 13:46:56;;;;;;;;;;;;;;;;;;5133307;27;19908;-41
2022/10/26 13:49:22;;;;;;;;;;;;;;;;;;5134677;27;19907;-45
2022/10/26 13:51:48;;;;;;;;;;;;;;;;;;5129879;27;20363;-41
2022/10/26 13:54:14;;;;;;;;;;;;;;;;;;5134244;27;20016;-42
2022/10/26 13:56:40;;;;;;;;;;;;;;;;;;5133635;27;19908;-42
2022/10/26 13:59:08;;;;;;;;;;;;;;;;;;5122103;27;19912;-41
2022/10/26 14:01:33;;;;;;;;;;;;;;;;;;5133189;27;19918;-44
2022/10/26 14:03:59;;;;;;;;;;;;;;;;;;5132707;27;19915;-41
2022/10/26 14:06:25;;;;;;;;;;;;;;;;;;5131715;27;19918;-41
2022/10/26 14:08:51;;;;;;;;;;;;;;;;;;5132173;27;19923;-41
2022/10/26 14:11:17;;;;;;;;;;;;;;;;;;5120128;27;20360;-43
2022/10/26 14:13:43;;;;;;;;;;;;;;;;;;5131275;27;19987;-41
2022/10/26 14:16:09;;;;;;;;;;;;;;;;;;5128554;27;20268;-41
2022/10/26 14:18:35;;;;;;;;;;;;;;;;;;5133593;27;19907;-43
2022/10/26 14:21:00;;;;;;;;;;;;;;;;;;5124214;27;19918;-41
2022/10/26 14:23:26;;;;;;;;;;;;;;;;;;5126915;27;20363;-41
2022/10/26 14:25:53;;;;;;;;;;;;;;;;;;5131771;27;19907;-41
2022/10/26 14:28:19;;;;;;;;;;;;;;;;;;5133585;27;19908;-41
2022/10/26 14:30:44;;;;;;;;;;;;;;;;;;5132336;27;19907;-41
2022/10/26 14:33:10;;;;;;;;;;;;;;;;;;5132345;27;19911;-41
2022/10/26 14:35:40;;;;;;;;;;;;;;;;;;5124035;27;20365;-44
2022/10/26 14:38:06;;;;;;;;;;;;;;;;;;5126348;27;20276;-43
2022/10/26 14:40:32;;;;;;;;;;;;;;;;;;5119949;27;19915;-41
2022/10/26 14:42:58;;;;;;;;;;;;;;;;;;5132683;27;19919;-41
2022/10/26 14:45:24;;;;;;;;;;;;;;;;;;5132798;27;19908;-41
2022/10/26 14:47:50;;;;;;;;;;;;;;;;;;5132256;27;19907;-41
2022/10/26 14:50:16;;;;;;;;;;;;;;;;;;5113021;27;19915;-41
2022/10/26 14:52:42;;;;;;;;;;;;;;;;;;5132311;27;19914;-41
2022/10/26 14:55:08;;;;;;;;;;;;;;;;;;5132504;27;19998;-41
2022/10/26 14:57:34;;;;;;;;;;;;;;;;;;5132730;27;20362;-44
2022/10/26 15:00:00;;;;;;;;;;;;;;;;;;5131922;27;20015;-42
2022/10/26 15:02:25;;;;;;;;;;;;;;;;;;5132769;27;20401;-41
2022/10/26 15:04:51;;;;;;;;;;;;;;;;;;5131652;27;20028;-41
2022/10/26 15:07:17;;;;;;;;;;;;;;;;;;5119389;27;20304;-41
2022/10/26 15:09:43;;;;;;;;;;;;;;;;;;5126493;27;19968;-41
2022/10/26 15:12:09;;;;;;;;;;;;;;;;;;5132567;27;20261;-41
2022/10/26 15:14:35;;;;;;;;;;;;;;;;;;5130393;27;20384;-44
2022/10/26 15:17:01;;;;;;;;;;;;;;;;;;5132506;27;20340;-43
2022/10/26 15:19:27;;;;;;;;;;;;;;;;;;5132413;28;19918;-41
2022/10/26 15:21:53;;;;;;;;;;;;;;;;;;5135496;27;19959;-41
2022/10/26 15:24:19;;;;;;;;;;;;;;;;;;5125825;28;19911;-41
2022/10/26 15:26:44;;;;;;;;;;;;;;;;;;5131609;28;19907;-41
2022/10/26 15:29:10;;;;;;;;;;;;;;;;;;5132287;28;19908;-41
2022/10/26 15:31:36;;;;;;;;;;;;;;;;;;5133941;27;19943;-44
2022/10/26 15:34:02;;;;;;;;;;;;;;;;;;5141512;27;20300;-44
2022/10/26 15:36:28;;;;;;;;;;;;;;;;;;5142709;27;19908;-42
2022/10/26 15:38:54;;;;;;;;;;;;;;;;;;5133231;27;19915;-42
2022/10/26 15:41:20;;;;;;;;;;;;;;;;;;5136352;27;19980;-41
2022/10/26 15:43:46;;;;;;;;;;;;;;;;;;5135363;27;20454;-43
2022/10/26 15:46:12;;;;;;;;;;;;;;;;;;5130257;27;19917;-41
2022/10/26 15:48:39;;;;;;;;;;;;;;;;;;5136113;27;19908;-44
2022/10/26 15:51:05;;;;;;;;;;;;;;;;;;5130842;27;20368;-41
2022/10/26 15:53:31;;;;;;;;;;;;;;;;;;5136654;27;20004;-41
2022/10/26 15:55:57;;;;;;;;;;;;;;;;;;5135522;27;20181;-41
2022/10/26 15:58:23;;;;;;;;;;;;;;;;;;5136739;27;19920;-41
2022/10/26 16:00:49;;;;;;;;;;;;;;;;;;5135209;27;20321;-41
2022/10/26 16:03:15;;;;;;;;;;;;;;;;;;5136265;27;19915;-41
2022/10/26 16:05:41;;;;;;;;;;;;;;;;;;5126303;27;19915;-41
2022/10/26 16:08:06;;;;;;;;;;;;;;;;;;5114880;27;20091;-43
2022/10/26 16:10:32;;;;;;;;;;;;;;;;;;5120539;27;19922;-41
2022/10/26 16:12:58;;;;;;;;;;;;;;;;;;5130567;27;19911;-41
2022/10/26 16:15:24;;;;;;;;;;;;;;;;;;5131835;27;20407;-42
2022/10/26 16:17:50;;;;;;;;;;;;;;;;;;5134472;27;19907;-41
2022/10/26 16:20:16;;;;;;;;;;;;;;;;;;5131387;27;19919;-41
2022/10/26 16:22:46;;;;;;;;;;;;;;;;;;5130198;27;20026;-41
2022/10/26 16:25:12;;;;;;;;;;;;;;;;;;5135650;27;19961;-41
2022/10/26 16:27:38;;;;;;;;;;;;;;;;;;5128522;27;19916;-42
2022/10/26 16:30:04;;;;;;;;;;;;;;;;;;5122636;27;19954;-42
2022/10/26 16:32:30;;;;;;;;;;;;;;;;;;5132988;27;19965;-41
2022/10/26 16:34:56;;;;;;;;;;;;;;;;;;5129625;27;20462;-41
2022/10/26 16:37:22;;;;;;;;;;;;;;;;;;5135199;27;20015;-41